createdAt,value
2024-02-20T00:01:36.476Z,78.94
2024-02-20T00:07:37.819Z,78.59
2024-02-20T00:15:41.780Z,78.32
2024-02-20T00:39:48.013Z,78.45
2024-02-20T00:43:12.989Z,78.18
2024-02-20T00:51:27.233Z,77.61
2024-02-20T01:20:08.459Z,78.89
2024-02-20T01:23:57.914Z,78.35
2024-02-20T01:30:35.553Z,77.66
2024-02-20T01:33:54.074Z,77.65
2024-02-20T01:37:52.302Z,77.48
2024-02-20T01:56:45.486Z,78.45
2024-02-20T02:00:29.315Z,79.53
2024-02-20T02:03:23.746Z,80.07
2024-02-20T02:09:20.657Z,79.64
2024-02-20T02:12:00.942Z,80.59
2024-02-20T02:22:54.000Z,81.56
2024-02-20T02:30:11.932Z,79.99
2024-02-20T02:33:21.950Z,79.72
2024-02-20T02:36:15.527Z,79.57
2024-02-20T02:49:08.557Z,79.59
2024-02-20T02:51:59.212Z,79.55
2024-02-20T03:07:46.182Z,79.97
2024-02-20T03:14:41.303Z,79.73
2024-02-20T03:29:26.625Z,79.63
2024-02-20T03:37:08.208Z,79.80
2024-02-20T03:40:55.340Z,80.14
2024-02-20T03:44:33.575Z,79.77
2024-02-20T03:47:35.976Z,80.11
2024-02-20T03:50:28.069Z,79.67
2024-02-20T03:53:54.116Z,80.10
2024-02-20T03:56:40.050Z,80.20
2024-02-20T04:00:03.440Z,80.24
2024-02-20T04:02:42.390Z,80.18
2024-02-20T04:05:28.060Z,80.91
2024-02-20T04:08:29.517Z,80.63
2024-02-20T04:11:05.379Z,80.75
2024-02-20T04:13:52.889Z,80.14
2024-02-20T04:16:41.147Z,80.53
2024-02-20T04:19:26.719Z,80.65
2024-02-20T04:22:49.598Z,80.62
2024-02-20T04:25:36.551Z,80.97
2024-02-20T04:28:31.757Z,80.77
2024-02-20T04:31:20.386Z,80.94
2024-02-20T04:35:36.539Z,80.77
2024-02-20T04:54:32.606Z,82.58
2024-02-20T04:57:38.354Z,82.12
2024-02-20T05:01:27.432Z,81.61
2024-02-20T05:12:17.389Z,83.26
2024-02-20T05:18:39.107Z,83.98
2024-02-20T05:21:44.417Z,82.69
2024-02-20T05:28:28.919Z,83.36
2024-02-20T05:31:03.648Z,83.90
2024-02-20T05:35:44.573Z,84.25
2024-02-20T05:42:43.825Z,84.23
2024-02-20T05:52:32.411Z,84.29
2024-02-20T06:10:26.692Z,83.65
2024-02-20T06:19:14.708Z,84.08
2024-02-20T06:19:56.559Z,84.22
2024-02-20T06:22:36.449Z,83.41
2024-02-20T06:33:11.314Z,83.24
2024-02-20T06:36:14.583Z,83.01
2024-02-20T06:43:56.657Z,82.29
2024-02-20T06:47:26.447Z,81.98
2024-02-20T06:54:49.754Z,78.81
2024-02-20T06:57:44.514Z,79.08
2024-02-20T07:00:13.385Z,81.01
2024-02-20T07:02:45.181Z,79.54
2024-02-20T07:05:16.231Z,80.10
2024-02-20T07:07:53.221Z,79.96
2024-02-20T07:10:31.553Z,80.45
2024-02-20T07:13:02.479Z,81.48
2024-02-20T07:15:30.838Z,80.92
2024-02-20T07:18:14.930Z,81.32
2024-02-20T07:20:49.436Z,81.08
2024-02-20T07:23:19.592Z,81.09
2024-02-20T07:26:29.971Z,81.18
2024-02-20T07:29:05.175Z,81.68
2024-02-20T07:31:38.448Z,81.84
2024-02-20T07:34:10.034Z,81.70
2024-02-20T07:37:07.145Z,80.87
2024-02-20T07:39:55.673Z,81.87
2024-02-20T08:51:12.763Z,77.58
2024-02-20T08:57:14.653Z,76.21
2024-02-20T08:59:45.581Z,76.99
2024-02-20T09:03:06.931Z,74.81
2024-02-20T09:05:47.943Z,71.81
2024-02-20T09:12:24.697Z,71.25
2024-02-20T09:15:40.646Z,71.81
2024-02-20T09:18:51.732Z,71.58
2024-02-20T09:21:40.625Z,71.77
2024-02-20T09:24:54.170Z,72.29
2024-02-20T09:27:32.133Z,71.93
2024-02-20T09:33:12.472Z,72.28
2024-02-20T09:37:48.395Z,69.22
2024-02-20T09:48:49.985Z,68.26
2024-02-20T09:52:02.744Z,68.71
2024-02-20T10:18:29.227Z,68.38
2024-02-20T10:22:21.902Z,68.81
2024-02-20T10:26:09.299Z,69.39
2024-02-20T10:32:21.798Z,67.53
2024-02-20T10:35:15.139Z,65.98
2024-02-20T10:37:56.691Z,64.17
2024-02-20T10:40:39.984Z,62.93
2024-02-20T10:43:18.970Z,60.65
2024-02-20T10:46:01.305Z,58.28
2024-02-20T10:48:43.196Z,59.31
2024-02-20T10:51:40.405Z,59.77
2024-02-20T10:54:18.071Z,59.71
2024-02-20T11:50:19.854Z,58.09
2024-02-20T11:53:18.569Z,57.10
2024-02-20T11:55:58.324Z,55.98
2024-02-20T11:59:05.113Z,56.72
2024-02-20T12:01:37.123Z,54.73
2024-02-20T12:07:26.906Z,52.52
2024-02-20T12:10:05.332Z,52.89
2024-02-20T12:13:00.522Z,53.40
2024-02-20T12:18:39.043Z,51.76
2024-02-20T12:21:23.987Z,52.79
2024-02-20T12:27:25.436Z,56.59
2024-02-20T12:33:57.211Z,62.56
2024-02-20T12:36:33.793Z,62.59
2024-02-20T12:39:24.730Z,62.73
2024-02-20T12:48:36.650Z,60.44
2024-02-20T12:54:39.635Z,58.48
2024-02-20T12:57:34.787Z,58.31
2024-02-20T13:00:12.429Z,59.98
2024-02-20T13:02:40.396Z,59.45
2024-02-20T13:05:11.468Z,55.82
2024-02-20T13:07:38.940Z,55.09
2024-02-20T13:10:06.878Z,55.33
2024-02-20T13:12:47.213Z,53.69
2024-02-20T13:15:23.809Z,53.82
2024-02-20T13:17:58.372Z,53.11
2024-02-20T13:20:53.026Z,53.59
2024-02-20T13:23:22.023Z,53.09
2024-02-20T13:25:58.742Z,53.50
2024-02-20T13:28:38.120Z,52.31
2024-02-20T13:31:11.490Z,51.41
2024-02-20T13:33:50.703Z,52.27
2024-02-20T13:36:24.068Z,51.35
2024-02-20T13:38:55.473Z,51.76
2024-02-20T13:41:50.649Z,52.04
2024-02-20T13:44:18.284Z,52.81
2024-02-20T13:46:47.136Z,52.22
2024-02-20T13:49:24.209Z,51.75
2024-02-20T13:51:53.113Z,51.70
2024-02-20T13:54:21.530Z,52.30
2024-02-20T13:56:51.578Z,52.28
2024-02-20T13:59:22.972Z,52.67
2024-02-20T14:01:55.577Z,53.13
2024-02-20T14:04:31.117Z,53.47
2024-02-20T14:06:59.065Z,54.46
2024-02-20T14:09:32.068Z,54.25
2024-02-20T14:12:00.795Z,53.64
2024-02-20T14:17:48.910Z,52.31
2024-02-20T14:20:32.248Z,52.38
2024-02-20T14:23:04.613Z,52.65
2024-02-20T14:25:34.132Z,53.34
2024-02-20T14:28:04.240Z,52.76
2024-02-20T14:30:35.389Z,51.94
2024-02-20T14:33:16.595Z,53.41
2024-02-20T14:35:53.769Z,52.10
2024-02-20T14:38:21.705Z,52.85
2024-02-20T14:40:51.108Z,53.65
2024-02-20T14:44:11.297Z,53.74
2024-02-20T14:46:44.632Z,54.12
2024-02-20T14:49:20.083Z,52.97
2024-02-20T14:51:48.577Z,51.84
2024-02-20T14:54:16.179Z,51.98
2024-02-20T14:56:44.645Z,50.57
2024-02-20T14:59:13.520Z,50.49
2024-02-20T15:01:48.341Z,50.42
2024-02-20T15:04:16.199Z,51.20
2024-02-20T15:06:46.686Z,51.06
2024-02-20T15:09:15.398Z,51.43
2024-02-20T15:11:44.005Z,52.43
2024-02-20T15:14:14.277Z,51.68
2024-02-20T15:16:48.914Z,51.38
2024-02-20T15:19:19.461Z,51.80
2024-02-20T15:21:51.596Z,51.81
2024-02-20T15:24:19.673Z,51.83
2024-02-20T15:26:55.952Z,51.80
2024-02-20T15:29:24.149Z,51.82
2024-02-20T15:31:52.019Z,51.99
2024-02-20T15:34:20.853Z,51.74
2024-02-20T15:36:51.366Z,51.96
2024-02-20T15:39:19.412Z,51.69
2024-02-20T15:41:47.561Z,51.57
2024-02-20T15:44:15.307Z,51.39
2024-02-20T15:46:45.876Z,51.47
2024-02-20T15:49:22.390Z,51.24
2024-02-20T15:51:50.255Z,51.44
2024-02-20T15:54:19.181Z,52.39
2024-02-20T15:56:53.632Z,52.48
2024-02-20T15:59:30.825Z,53.46
2024-02-20T16:02:01.660Z,53.31
2024-02-20T16:04:29.392Z,53.54
2024-02-20T16:06:57.304Z,53.48
2024-02-20T16:09:38.562Z,53.76
2024-02-20T16:12:23.597Z,53.41
2024-02-20T16:14:57.621Z,53.21
2024-02-20T16:17:33.325Z,53.53
2024-02-20T16:20:09.736Z,53.96
2024-02-20T16:22:38.856Z,54.03
2024-02-20T16:25:11.761Z,54.24
2024-02-20T16:27:42.788Z,53.95
2024-02-20T16:30:11.049Z,54.12
2024-02-20T16:32:41.958Z,53.75
2024-02-20T16:35:13.978Z,53.94
2024-02-20T16:37:42.262Z,53.80
2024-02-20T16:40:10.865Z,53.89
2024-02-20T16:42:38.973Z,53.59
2024-02-20T16:45:07.748Z,53.74
2024-02-20T16:47:36.257Z,54.22
2024-02-20T16:50:04.472Z,53.90
2024-02-20T16:52:34.676Z,53.97
2024-02-20T16:55:02.544Z,54.45
2024-02-20T16:57:30.269Z,54.48
2024-02-20T16:59:58.042Z,54.42
2024-02-20T17:02:25.868Z,54.32
2024-02-20T17:04:54.460Z,55.07
2024-02-20T17:07:23.512Z,55.16
2024-02-20T17:09:54.977Z,54.88
2024-02-20T17:12:25.260Z,55.36
2024-02-20T17:14:54.599Z,55.44
2024-02-20T17:17:25.285Z,55.63
2024-02-20T17:19:54.595Z,56.42
2024-02-20T17:22:22.520Z,55.96
2024-02-20T17:24:51.920Z,55.41
2024-02-20T17:27:26.508Z,55.15
2024-02-20T17:29:59.676Z,55.31
2024-02-20T17:32:27.541Z,55.25
2024-02-20T17:34:55.567Z,55.32
2024-02-20T17:37:35.756Z,55.33
2024-02-20T17:40:14.470Z,55.58
2024-02-20T17:46:18.178Z,55.48
2024-02-20T17:48:48.709Z,55.69
2024-02-20T17:51:25.565Z,56.11
2024-02-20T17:56:43.221Z,55.64
2024-02-20T17:59:17.863Z,56.17
2024-02-20T18:01:46.472Z,56.34
2024-02-20T18:04:17.929Z,56.78
2024-02-20T18:06:49.574Z,57.09
2024-02-20T18:09:21.449Z,56.47
2024-02-20T18:11:53.382Z,56.89
2024-02-20T18:14:42.118Z,56.78
2024-02-20T18:17:13.582Z,56.64
2024-02-20T18:19:59.375Z,57.22
2024-02-20T18:22:34.198Z,57.26
2024-02-20T18:25:23.315Z,57.32
2024-02-20T18:28:28.394Z,57.54
2024-02-20T18:31:22.288Z,57.38
2024-02-20T18:34:09.533Z,57.28
2024-02-20T18:36:52.273Z,57.81
2024-02-20T18:39:42.760Z,57.83
2024-02-20T18:42:28.315Z,58.17
2024-02-20T18:45:13.930Z,58.54
2024-02-20T18:47:44.860Z,58.08
2024-02-20T18:50:13.318Z,58.74
2024-02-20T18:52:49.788Z,58.67
2024-02-20T18:55:23.374Z,58.31
2024-02-20T18:58:00.809Z,58.83
2024-02-20T19:00:45.713Z,59.08
2024-02-20T19:03:20.449Z,59.75
2024-02-20T19:05:53.156Z,59.77
2024-02-20T19:08:41.210Z,59.66
2024-02-20T19:11:19.351Z,60.02
2024-02-20T19:13:59.024Z,60.10
2024-02-20T19:16:39.184Z,60.59
2024-02-20T19:19:12.457Z,61.01
2024-02-20T19:21:40.934Z,60.37
2024-02-20T19:24:24.830Z,61.04
2024-02-20T19:26:55.205Z,60.92
2024-02-20T19:29:26.869Z,62.12
2024-02-20T19:32:26.719Z,61.16
2024-02-20T19:35:02.576Z,61.23
2024-02-20T19:37:46.307Z,61.77
2024-02-20T19:40:16.540Z,61.75
2024-02-20T19:42:50.413Z,61.58
2024-02-20T19:45:23.932Z,62.13
2024-02-20T19:48:00.157Z,62.33
2024-02-20T19:50:32.531Z,62.08
2024-02-20T19:53:08.166Z,62.59
2024-02-20T19:55:36.297Z,63.08
2024-02-20T19:58:15.872Z,62.72
2024-02-20T20:00:51.380Z,62.49
2024-02-20T20:03:24.203Z,62.33
2024-02-20T20:06:11.561Z,62.45
2024-02-20T20:08:49.358Z,62.42
2024-02-20T20:11:33.106Z,62.83
2024-02-20T20:14:08.391Z,63.18
2024-02-20T20:16:40.681Z,63.12
2024-02-20T20:19:13.345Z,64.04
2024-02-20T20:21:45.009Z,63.77
2024-02-20T20:24:18.215Z,63.16
2024-02-20T20:26:57.629Z,63.83
2024-02-20T20:30:12.017Z,63.73
2024-02-20T20:33:48.576Z,64.05
2024-02-20T20:36:25.291Z,64.59
2024-02-20T20:39:10.702Z,64.39
2024-02-20T20:43:08.418Z,64.58
2024-02-20T20:45:05.777Z,64.94
2024-02-20T20:47:51.509Z,64.63
2024-02-20T20:50:48.138Z,65.17
2024-02-20T20:53:42.184Z,64.73
2024-02-20T20:56:12.254Z,66.90
2024-02-20T20:58:58.892Z,66.04
2024-02-20T21:01:38.358Z,65.65
2024-02-20T21:08:37.329Z,65.86
2024-02-20T21:11:10.750Z,65.87
2024-02-20T21:13:54.907Z,65.57
2024-02-20T21:16:24.047Z,65.95
2024-02-20T21:18:54.310Z,66.05
2024-02-20T21:21:25.454Z,65.75
2024-02-20T21:23:59.738Z,65.39
2024-02-20T21:26:41.047Z,65.96
2024-02-20T21:29:13.259Z,66.90
2024-02-20T21:31:52.149Z,66.47
2024-02-20T21:34:20.689Z,65.82
2024-02-20T21:36:51.184Z,65.70
2024-02-20T21:39:27.805Z,65.95
2024-02-20T21:42:01.194Z,65.65
2024-02-20T22:02:12.000Z,64.62
2024-02-20T22:04:48.330Z,64.39
2024-02-20T22:07:31.250Z,63.93
2024-02-20T22:10:05.091Z,63.88
2024-02-20T22:12:40.215Z,63.43
2024-02-20T22:15:08.856Z,63.37
2024-02-20T22:17:43.893Z,62.99
2024-02-20T22:20:15.769Z,63.22
2024-02-20T22:22:46.235Z,63.14
2024-02-20T22:25:35.828Z,62.79
2024-02-20T22:28:10.516Z,62.84
2024-02-20T22:30:39.643Z,62.92
2024-02-20T22:33:23.564Z,62.76
2024-02-20T22:36:08.815Z,62.67
2024-02-20T22:38:43.278Z,62.86
2024-02-20T22:41:18.620Z,62.88
2024-02-20T22:43:51.554Z,62.64
2024-02-20T22:46:28.835Z,62.50
2024-02-20T22:49:01.129Z,62.42
2024-02-20T22:51:29.212Z,62.86
2024-02-20T22:54:03.225Z,62.68
2024-02-20T22:56:38.449Z,62.48
2024-02-20T22:59:13.700Z,62.88
2024-02-20T23:01:43.565Z,62.68
2024-02-20T23:04:12.460Z,62.55
2024-02-20T23:06:51.345Z,62.31
2024-02-20T23:09:21.552Z,62.24
2024-02-20T23:11:54.248Z,62.57
2024-02-20T23:14:27.893Z,61.98
2024-02-20T23:16:59.169Z,62.08
2024-02-20T23:19:31.197Z,62.36
2024-02-20T23:22:01.765Z,62.41
2024-02-20T23:24:38.590Z,62.66
2024-02-20T23:27:09.604Z,63.42
2024-02-20T23:29:39.907Z,63.50
2024-02-20T23:32:13.796Z,63.54
2024-02-20T23:34:43.897Z,64.15
2024-02-20T23:37:17.187Z,63.97
2024-02-20T23:39:47.381Z,64.54
2024-02-20T23:42:15.537Z,64.81
2024-02-20T23:44:46.814Z,64.68
2024-02-20T23:47:22.247Z,65.28
2024-02-20T23:49:50.081Z,65.52
2024-02-20T23:52:18.287Z,65.42
2024-02-20T23:54:47.823Z,65.90
2024-02-20T23:57:17.942Z,66.06
2024-02-20T23:59:49.448Z,66.40
